sensor_id;sensor_type;location;lat;lon;timestamp;P1;durP1;ratioP1;P2;durP2;ratioP2
75171;SDS011;63750;52.418;20.742;2023-10-31T00:00:04;22.00;;;13.90;;
75171;SDS011;63750;52.418;20.742;2023-10-31T00:02:33;23.10;;;16.10;;
75171;SDS011;63750;52.418;20.742;2023-10-31T00:05:01;23.50;;;15.10;;
75171;SDS011;63750;52.418;20.742;2023-10-31T00:07:30;19.60;;;14.70;;
75171;SDS011;63750;52.418;20.742;2023-10-31T00:09:58;19.10;;;14.30;;
75171;SDS011;63750;52.418;20.742;2023-10-31T00:12:26;18.40;;;14.00;;
75171;SDS011;63750;52.418;20.742;2023-10-31T00:14:54;19.00;;;13.40;;
75171;SDS011;63750;52.418;20.742;2023-10-31T00:17:22;19.90;;;14.00;;
75171;SDS011;63750;52.418;20.742;2023-10-31T00:19:52;19.90;;;14.90;;
75171;SDS011;63750;52.418;20.742;2023-10-31T00:22:20;21.90;;;14.80;;
75171;SDS011;63750;52.418;20.742;2023-10-31T00:24:48;19.60;;;13.50;;
75171;SDS011;63750;52.418;20.742;2023-10-31T00:27:16;20.70;;;14.00;;
75171;SDS011;63750;52.418;20.742;2023-10-31T00:29:44;19.50;;;14.10;;
75171;SDS011;63750;52.418;20.742;2023-10-31T00:32:12;19.00;;;14.40;;
75171;SDS011;63750;52.418;20.742;2023-10-31T00:34:41;20.20;;;13.60;;
75171;SDS011;63750;52.418;20.742;2023-10-31T00:37:09;19.10;;;14.00;;
75171;SDS011;63750;52.418;20.742;2023-10-31T00:39:37;19.30;;;13.90;;
75171;SDS011;63750;52.418;20.742;2023-10-31T00:42:05;23.20;;;14.20;;
75171;SDS011;63750;52.418;20.742;2023-10-31T00:44:34;22.30;;;15.40;;
75171;SDS011;63750;52.418;20.742;2023-10-31T00:47:02;19.30;;;14.70;;
75171;SDS011;63750;52.418;20.742;2023-10-31T00:49:30;20.20;;;14.80;;
75171;SDS011;63750;52.418;20.742;2023-10-31T00:51:58;19.70;;;14.50;;
75171;SDS011;63750;52.418;20.742;2023-10-31T00:54:26;20.30;;;14.90;;
75171;SDS011;63750;52.418;20.742;2023-10-31T00:56:55;19.00;;;14.10;;
75171;SDS011;63750;52.418;20.742;2023-10-31T00:59:23;22.90;;;14.60;;
75171;SDS011;63750;52.418;20.742;2023-10-31T01:01:51;17.50;;;13.10;;
75171;SDS011;63750;52.418;20.742;2023-10-31T01:04:19;21.50;;;14.10;;
75171;SDS011;63750;52.418;20.742;2023-10-31T01:06:48;20.40;;;13.90;;
75171;SDS011;63750;52.418;20.742;2023-10-31T01:09:16;18.10;;;13.80;;
75171;SDS011;63750;52.418;20.742;2023-10-31T01:11:44;17.30;;;13.40;;
75171;SDS011;63750;52.418;20.742;2023-10-31T01:14:12;22.60;;;14.10;;
75171;SDS011;63750;52.418;20.742;2023-10-31T01:16:40;17.10;;;12.90;;
75171;SDS011;63750;52.418;20.742;2023-10-31T01:19:09;18.70;;;13.80;;
75171;SDS011;63750;52.418;20.742;2023-10-31T01:21:37;21.50;;;13.90;;
75171;SDS011;63750;52.418;20.742;2023-10-31T01:24:06;19.40;;;13.30;;
75171;SDS011;63750;52.418;20.742;2023-10-31T01:26:35;16.00;;;12.90;;
75171;SDS011;63750;52.418;20.742;2023-10-31T01:29:03;19.90;;;12.60;;
75171;SDS011;63750;52.418;20.742;2023-10-31T01:31:31;20.50;;;13.20;;
75171;SDS011;63750;52.418;20.742;2023-10-31T01:33:59;16.00;;;12.70;;
75171;SDS011;63750;52.418;20.742;2023-10-31T01:36:27;18.50;;;12.10;;
75171;SDS011;63750;52.418;20.742;2023-10-31T01:38:55;18.50;;;13.10;;
75171;SDS011;63750;52.418;20.742;2023-10-31T01:41:23;16.90;;;12.30;;
75171;SDS011;63750;52.418;20.742;2023-10-31T01:43:52;15.90;;;12.40;;
75171;SDS011;63750;52.418;20.742;2023-10-31T01:46:20;17.00;;;12.20;;
75171;SDS011;63750;52.418;20.742;2023-10-31T01:48:49;17.00;;;11.80;;
75171;SDS011;63750;52.418;20.742;2023-10-31T01:51:17;16.00;;;11.40;;
75171;SDS011;63750;52.418;20.742;2023-10-31T01:53:45;17.20;;;11.60;;
75171;SDS011;63750;52.418;20.742;2023-10-31T01:56:15;16.40;;;11.70;;
75171;SDS011;63750;52.418;20.742;2023-10-31T01:58:43;18.00;;;11.70;;
75171;SDS011;63750;52.418;20.742;2023-10-31T02:01:11;15.90;;;12.20;;
75171;SDS011;63750;52.418;20.742;2023-10-31T02:03:39;17.60;;;12.20;;
75171;SDS011;63750;52.418;20.742;2023-10-31T02:06:08;16.20;;;11.40;;
75171;SDS011;63750;52.418;20.742;2023-10-31T02:08:36;15.10;;;11.20;;
75171;SDS011;63750;52.418;20.742;2023-10-31T02:11:04;17.10;;;11.80;;
75171;SDS011;63750;52.418;20.742;2023-10-31T02:13:33;15.30;;;10.80;;
75171;SDS011;63750;52.418;20.742;2023-10-31T02:16:01;15.90;;;11.00;;
75171;SDS011;63750;52.418;20.742;2023-10-31T02:18:30;13.80;;;10.60;;
75171;SDS011;63750;52.418;20.742;2023-10-31T02:20:58;15.70;;;11.30;;
75171;SDS011;63750;52.418;20.742;2023-10-31T02:23:26;13.60;;;11.60;;
75171;SDS011;63750;52.418;20.742;2023-10-31T02:25:54;14.10;;;9.70;;
75171;SDS011;63750;52.418;20.742;2023-10-31T02:28:23;13.80;;;10.70;;
75171;SDS011;63750;52.418;20.742;2023-10-31T02:30:51;14.40;;;10.60;;
75171;SDS011;63750;52.418;20.742;2023-10-31T02:33:19;15.00;;;10.50;;
75171;SDS011;63750;52.418;20.742;2023-10-31T02:35:47;16.00;;;9.90;;
75171;SDS011;63750;52.418;20.742;2023-10-31T02:38:15;14.40;;;9.90;;
75171;SDS011;63750;52.418;20.742;2023-10-31T02:40:43;13.40;;;9.00;;
75171;SDS011;63750;52.418;20.742;2023-10-31T02:43:12;12.40;;;9.50;;
75171;SDS011;63750;52.418;20.742;2023-10-31T02:45:40;14.00;;;9.90;;
75171;SDS011;63750;52.418;20.742;2023-10-31T02:48:08;13.40;;;9.60;;
75171;SDS011;63750;52.418;20.742;2023-10-31T02:50:36;13.50;;;9.60;;
75171;SDS011;63750;52.418;20.742;2023-10-31T02:53:04;13.30;;;9.30;;
75171;SDS011;63750;52.418;20.742;2023-10-31T02:55:32;12.10;;;9.20;;
75171;SDS011;63750;52.418;20.742;2023-10-31T02:58:00;13.60;;;9.50;;
75171;SDS011;63750;52.418;20.742;2023-10-31T03:00:29;11.80;;;9.70;;
75171;SDS011;63750;52.418;20.742;2023-10-31T03:02:57;12.50;;;9.60;;
75171;SDS011;63750;52.418;20.742;2023-10-31T03:05:25;13.50;;;9.90;;
75171;SDS011;63750;52.418;20.742;2023-10-31T03:07:53;13.40;;;9.40;;
75171;SDS011;63750;52.418;20.742;2023-10-31T03:10:21;12.00;;;9.70;;
75171;SDS011;63750;52.418;20.742;2023-10-31T03:12:49;13.00;;;9.60;;
75171;SDS011;63750;52.418;20.742;2023-10-31T03:15:17;11.10;;;8.60;;
75171;SDS011;63750;52.418;20.742;2023-10-31T03:17:45;11.70;;;9.30;;
75171;SDS011;63750;52.418;20.742;2023-10-31T03:20:14;10.40;;;8.70;;
75171;SDS011;63750;52.418;20.742;2023-10-31T03:22:42;12.70;;;9.40;;
75171;SDS011;63750;52.418;20.742;2023-10-31T03:25:10;11.10;;;8.60;;
75171;SDS011;63750;52.418;20.742;2023-10-31T03:27:38;12.20;;;8.80;;
75171;SDS011;63750;52.418;20.742;2023-10-31T03:30:07;12.00;;;8.30;;
75171;SDS011;63750;52.418;20.742;2023-10-31T03:32:37;13.60;;;9.10;;
75171;SDS011;63750;52.418;20.742;2023-10-31T03:35:05;13.40;;;9.70;;
75171;SDS011;63750;52.418;20.742;2023-10-31T03:37:34;11.80;;;9.10;;
75171;SDS011;63750;52.418;20.742;2023-10-31T03:40:02;13.50;;;9.20;;
75171;SDS011;63750;52.418;20.742;2023-10-31T03:42:32;13.50;;;8.40;;
75171;SDS011;63750;52.418;20.742;2023-10-31T03:45:00;14.40;;;9.20;;
75171;SDS011;63750;52.418;20.742;2023-10-31T03:47:28;11.10;;;8.40;;
75171;SDS011;63750;52.418;20.742;2023-10-31T03:49:56;12.10;;;8.60;;
75171;SDS011;63750;52.418;20.742;2023-10-31T03:52:25;10.40;;;8.50;;
75171;SDS011;63750;52.418;20.742;2023-10-31T03:54:53;13.00;;;8.60;;
75171;SDS011;63750;52.418;20.742;2023-10-31T03:57:21;11.40;;;8.40;;
75171;SDS011;63750;52.418;20.742;2023-10-31T03:59:49;10.10;;;7.80;;
75171;SDS011;63750;52.418;20.742;2023-10-31T04:02:17;9.40;;;7.80;;
75171;SDS011;63750;52.418;20.742;2023-10-31T04:04:45;13.10;;;8.10;;
75171;SDS011;63750;52.418;20.742;2023-10-31T04:07:13;10.10;;;7.90;;
75171;SDS011;63750;52.418;20.742;2023-10-31T04:09:42;10.70;;;7.60;;
75171;SDS011;63750;52.418;20.742;2023-10-31T04:12:10;12.30;;;7.90;;
75171;SDS011;63750;52.418;20.742;2023-10-31T04:14:39;9.60;;;7.30;;
75171;SDS011;63750;52.418;20.742;2023-10-31T04:17:07;9.30;;;7.20;;
75171;SDS011;63750;52.418;20.742;2023-10-31T04:19:35;12.10;;;7.60;;
75171;SDS011;63750;52.418;20.742;2023-10-31T04:22:04;11.50;;;7.60;;
75171;SDS011;63750;52.418;20.742;2023-10-31T04:24:32;11.70;;;8.10;;
75171;SDS011;63750;52.418;20.742;2023-10-31T04:27:00;12.40;;;7.20;;
75171;SDS011;63750;52.418;20.742;2023-10-31T04:29:28;10.00;;;8.00;;
75171;SDS011;63750;52.418;20.742;2023-10-31T04:31:56;11.30;;;8.00;;
75171;SDS011;63750;52.418;20.742;2023-10-31T04:34:24;9.70;;;7.00;;
75171;SDS011;63750;52.418;20.742;2023-10-31T04:36:52;9.80;;;7.20;;
75171;SDS011;63750;52.418;20.742;2023-10-31T04:39:20;11.90;;;7.40;;
75171;SDS011;63750;52.418;20.742;2023-10-31T04:41:49;9.10;;;7.00;;
75171;SDS011;63750;52.418;20.742;2023-10-31T04:44:17;13.00;;;7.40;;
75171;SDS011;63750;52.418;20.742;2023-10-31T04:46:45;11.40;;;7.10;;
75171;SDS011;63750;52.418;20.742;2023-10-31T04:49:13;11.40;;;7.00;;
75171;SDS011;63750;52.418;20.742;2023-10-31T04:51:42;8.60;;;6.60;;
75171;SDS011;63750;52.418;20.742;2023-10-31T04:54:10;8.80;;;6.80;;
75171;SDS011;63750;52.418;20.742;2023-10-31T04:56:38;9.60;;;6.50;;
75171;SDS011;63750;52.418;20.742;2023-10-31T04:59:06;9.10;;;6.40;;
75171;SDS011;63750;52.418;20.742;2023-10-31T05:01:34;10.30;;;6.80;;
75171;SDS011;63750;52.418;20.742;2023-10-31T05:04:03;8.10;;;6.20;;
75171;SDS011;63750;52.418;20.742;2023-10-31T05:06:31;9.50;;;6.40;;
75171;SDS011;63750;52.418;20.742;2023-10-31T05:09:00;8.00;;;5.90;;
75171;SDS011;63750;52.418;20.742;2023-10-31T05:11:28;7.00;;;6.10;;
75171;SDS011;63750;52.418;20.742;2023-10-31T05:13:56;7.20;;;5.90;;
75171;SDS011;63750;52.418;20.742;2023-10-31T05:16:24;8.80;;;6.70;;
75171;SDS011;63750;52.418;20.742;2023-10-31T05:18:52;9.10;;;6.10;;
75171;SDS011;63750;52.418;20.742;2023-10-31T05:21:20;7.80;;;6.20;;
75171;SDS011;63750;52.418;20.742;2023-10-31T05:23:49;7.00;;;6.30;;
75171;SDS011;63750;52.418;20.742;2023-10-31T05:26:17;7.50;;;6.00;;
75171;SDS011;63750;52.418;20.742;2023-10-31T05:28:45;7.30;;;5.50;;
75171;SDS011;63750;52.418;20.742;2023-10-31T05:31:16;9.60;;;5.90;;
75171;SDS011;63750;52.418;20.742;2023-10-31T05:33:44;8.80;;;6.10;;
75171;SDS011;63750;52.418;20.742;2023-10-31T05:36:18;6.60;;;5.10;;
75171;SDS011;63750;52.418;20.742;2023-10-31T05:38:47;6.20;;;5.30;;
75171;SDS011;63750;52.418;20.742;2023-10-31T05:41:15;8.10;;;5.60;;
75171;SDS011;63750;52.418;20.742;2023-10-31T05:43:43;9.50;;;5.40;;
75171;SDS011;63750;52.418;20.742;2023-10-31T05:46:11;7.10;;;5.30;;
75171;SDS011;63750;52.418;20.742;2023-10-31T05:48:40;6.30;;;5.10;;
75171;SDS011;63750;52.418;20.742;2023-10-31T05:51:13;8.80;;;5.70;;
75171;SDS011;63750;52.418;20.742;2023-10-31T05:53:43;8.20;;;5.10;;
75171;SDS011;63750;52.418;20.742;2023-10-31T05:56:13;7.10;;;5.70;;
75171;SDS011;63750;52.418;20.742;2023-10-31T05:58:43;8.30;;;5.10;;
75171;SDS011;63750;52.418;20.742;2023-10-31T06:01:14;8.50;;;5.60;;
75171;SDS011;63750;52.418;20.742;2023-10-31T06:03:42;9.80;;;5.60;;
75171;SDS011;63750;52.418;20.742;2023-10-31T06:06:11;9.50;;;5.50;;
75171;SDS011;63750;52.418;20.742;2023-10-31T06:08:40;7.50;;;5.50;;
75171;SDS011;63750;52.418;20.742;2023-10-31T06:11:08;8.50;;;5.40;;
75171;SDS011;63750;52.418;20.742;2023-10-31T06:13:36;9.60;;;5.60;;
75171;SDS011;63750;52.418;20.742;2023-10-31T06:16:05;7.50;;;5.30;;
75171;SDS011;63750;52.418;20.742;2023-10-31T06:18:34;8.90;;;5.60;;
75171;SDS011;63750;52.418;20.742;2023-10-31T06:21:04;8.30;;;5.70;;
75171;SDS011;63750;52.418;20.742;2023-10-31T06:23:32;9.40;;;5.60;;
75171;SDS011;63750;52.418;20.742;2023-10-31T06:26:00;5.70;;;4.90;;
75171;SDS011;63750;52.418;20.742;2023-10-31T06:28:28;8.90;;;5.40;;
75171;SDS011;63750;52.418;20.742;2023-10-31T06:30:56;7.50;;;5.50;;
75171;SDS011;63750;52.418;20.742;2023-10-31T06:33:25;7.50;;;5.20;;
75171;SDS011;63750;52.418;20.742;2023-10-31T06:35:53;7.20;;;5.40;;
75171;SDS011;63750;52.418;20.742;2023-10-31T06:38:21;6.30;;;5.20;;
75171;SDS011;63750;52.418;20.742;2023-10-31T06:40:49;6.40;;;5.20;;
75171;SDS011;63750;52.418;20.742;2023-10-31T06:43:17;8.40;;;5.30;;
75171;SDS011;63750;52.418;20.742;2023-10-31T06:45:46;9.40;;;5.20;;
75171;SDS011;63750;52.418;20.742;2023-10-31T06:48:14;8.40;;;5.30;;
75171;SDS011;63750;52.418;20.742;2023-10-31T06:50:42;7.60;;;5.50;;
75171;SDS011;63750;52.418;20.742;2023-10-31T06:53:10;7.70;;;5.10;;
75171;SDS011;63750;52.418;20.742;2023-10-31T06:55:38;9.10;;;5.00;;
75171;SDS011;63750;52.418;20.742;2023-10-31T06:58:07;6.00;;;4.70;;
75171;SDS011;63750;52.418;20.742;2023-10-31T07:00:35;6.60;;;4.90;;
75171;SDS011;63750;52.418;20.742;2023-10-31T07:03:03;8.20;;;5.10;;
75171;SDS011;63750;52.418;20.742;2023-10-31T07:05:31;7.60;;;5.00;;
75171;SDS011;63750;52.418;20.742;2023-10-31T07:07:59;7.30;;;5.10;;
75171;SDS011;63750;52.418;20.742;2023-10-31T07:10:27;6.70;;;4.80;;
75171;SDS011;63750;52.418;20.742;2023-10-31T07:12:55;5.30;;;4.80;;
75171;SDS011;63750;52.418;20.742;2023-10-31T07:15:23;6.00;;;4.80;;
75171;SDS011;63750;52.418;20.742;2023-10-31T07:17:51;9.60;;;4.90;;
75171;SDS011;63750;52.418;20.742;2023-10-31T07:20:20;7.10;;;4.50;;
75171;SDS011;63750;52.418;20.742;2023-10-31T07:22:48;6.70;;;4.10;;
75171;SDS011;63750;52.418;20.742;2023-10-31T07:25:16;7.10;;;4.50;;
75171;SDS011;63750;52.418;20.742;2023-10-31T07:27:44;6.40;;;4.30;;
75171;SDS011;63750;52.418;20.742;2023-10-31T07:30:13;5.20;;;4.60;;
75171;SDS011;63750;52.418;20.742;2023-10-31T07:32:41;7.90;;;5.40;;
75171;SDS011;63750;52.418;20.742;2023-10-31T07:35:09;6.60;;;5.10;;
75171;SDS011;63750;52.418;20.742;2023-10-31T07:37:37;7.50;;;5.30;;
75171;SDS011;63750;52.418;20.742;2023-10-31T07:40:06;6.00;;;4.70;;
75171;SDS011;63750;52.418;20.742;2023-10-31T07:42:36;8.50;;;5.20;;
75171;SDS011;63750;52.418;20.742;2023-10-31T07:45:05;8.60;;;5.20;;
75171;SDS011;63750;52.418;20.742;2023-10-31T07:47:34;9.70;;;5.80;;
75171;SDS011;63750;52.418;20.742;2023-10-31T07:50:02;6.10;;;5.10;;
75171;SDS011;63750;52.418;20.742;2023-10-31T07:52:31;6.90;;;4.80;;
75171;SDS011;63750;52.418;20.742;2023-10-31T07:54:59;8.10;;;4.80;;
75171;SDS011;63750;52.418;20.742;2023-10-31T07:57:27;11.90;;;7.80;;
75171;SDS011;63750;52.418;20.742;2023-10-31T07:59:55;8.70;;;5.80;;
75171;SDS011;63750;52.418;20.742;2023-10-31T08:02:23;7.60;;;5.30;;
75171;SDS011;63750;52.418;20.742;2023-10-31T08:04:51;6.80;;;5.20;;
75171;SDS011;63750;52.418;20.742;2023-10-31T08:07:19;7.30;;;5.00;;
75171;SDS011;63750;52.418;20.742;2023-10-31T08:09:47;10.10;;;5.50;;
75171;SDS011;63750;52.418;20.742;2023-10-31T08:12:15;9.10;;;5.20;;
75171;SDS011;63750;52.418;20.742;2023-10-31T08:14:44;6.30;;;5.50;;
75171;SDS011;63750;52.418;20.742;2023-10-31T08:17:12;6.80;;;4.80;;
75171;SDS011;63750;52.418;20.742;2023-10-31T08:19:40;9.80;;;5.20;;
75171;SDS011;63750;52.418;20.742;2023-10-31T08:22:08;7.80;;;5.00;;
75171;SDS011;63750;52.418;20.742;2023-10-31T08:24:36;7.80;;;5.20;;
75171;SDS011;63750;52.418;20.742;2023-10-31T08:27:05;6.80;;;5.10;;
75171;SDS011;63750;52.418;20.742;2023-10-31T08:29:33;7.00;;;5.20;;
75171;SDS011;63750;52.418;20.742;2023-10-31T08:32:01;8.20;;;5.00;;
75171;SDS011;63750;52.418;20.742;2023-10-31T08:34:30;6.70;;;5.30;;
75171;SDS011;63750;52.418;20.742;2023-10-31T08:36:58;6.80;;;5.20;;
75171;SDS011;63750;52.418;20.742;2023-10-31T08:39:27;6.50;;;4.70;;
75171;SDS011;63750;52.418;20.742;2023-10-31T08:41:55;9.50;;;5.00;;
75171;SDS011;63750;52.418;20.742;2023-10-31T08:44:24;7.10;;;4.90;;
75171;SDS011;63750;52.418;20.742;2023-10-31T08:46:53;7.10;;;4.90;;
75171;SDS011;63750;52.418;20.742;2023-10-31T08:49:21;6.40;;;4.40;;
75171;SDS011;63750;52.418;20.742;2023-10-31T08:51:49;10.10;;;5.60;;
75171;SDS011;63750;52.418;20.742;2023-10-31T08:54:17;5.40;;;4.30;;
75171;SDS011;63750;52.418;20.742;2023-10-31T08:56:45;5.60;;;4.10;;
75171;SDS011;63750;52.418;20.742;2023-10-31T08:59:13;5.90;;;4.30;;
75171;SDS011;63750;52.418;20.742;2023-10-31T09:01:42;5.50;;;4.50;;
75171;SDS011;63750;52.418;20.742;2023-10-31T09:04:10;7.20;;;4.20;;
75171;SDS011;63750;52.418;20.742;2023-10-31T09:06:38;7.40;;;4.30;;
75171;SDS011;63750;52.418;20.742;2023-10-31T09:09:06;6.70;;;4.50;;
75171;SDS011;63750;52.418;20.742;2023-10-31T09:11:34;7.30;;;4.60;;
75171;SDS011;63750;52.418;20.742;2023-10-31T09:14:02;6.00;;;4.10;;
75171;SDS011;63750;52.418;20.742;2023-10-31T09:16:31;6.00;;;4.40;;
75171;SDS011;63750;52.418;20.742;2023-10-31T09:18:59;6.50;;;4.50;;
75171;SDS011;63750;52.418;20.742;2023-10-31T09:21:27;8.60;;;4.60;;
75171;SDS011;63750;52.418;20.742;2023-10-31T09:23:55;5.20;;;4.10;;
75171;SDS011;63750;52.418;20.742;2023-10-31T09:26:23;6.10;;;4.20;;
75171;SDS011;63750;52.418;20.742;2023-10-31T09:28:52;5.70;;;4.00;;
75171;SDS011;63750;52.418;20.742;2023-10-31T09:31:22;6.40;;;4.30;;
75171;SDS011;63750;52.418;20.742;2023-10-31T09:33:50;7.20;;;4.00;;
75171;SDS011;63750;52.418;20.742;2023-10-31T09:36:19;5.30;;;4.10;;
75171;SDS011;63750;52.418;20.742;2023-10-31T09:38:47;5.20;;;4.30;;
75171;SDS011;63750;52.418;20.742;2023-10-31T09:41:15;5.90;;;4.30;;
75171;SDS011;63750;52.418;20.742;2023-10-31T09:43:45;6.00;;;3.90;;
75171;SDS011;63750;52.418;20.742;2023-10-31T09:46:13;5.60;;;3.90;;
75171;SDS011;63750;52.418;20.742;2023-10-31T09:48:42;4.50;;;3.40;;
75171;SDS011;63750;52.418;20.742;2023-10-31T09:51:10;4.30;;;3.80;;
75171;SDS011;63750;52.418;20.742;2023-10-31T09:53:39;6.60;;;3.90;;
75171;SDS011;63750;52.418;20.742;2023-10-31T09:56:10;5.20;;;3.90;;
75171;SDS011;63750;52.418;20.742;2023-10-31T09:58:39;6.40;;;3.80;;
75171;SDS011;63750;52.418;20.742;2023-10-31T10:01:09;6.90;;;4.20;;
75171;SDS011;63750;52.418;20.742;2023-10-31T10:03:37;8.10;;;4.30;;
75171;SDS011;63750;52.418;20.742;2023-10-31T10:06:06;8.30;;;4.60;;
75171;SDS011;63750;52.418;20.742;2023-10-31T10:08:37;5.10;;;3.90;;
75171;SDS011;63750;52.418;20.742;2023-10-31T10:11:06;4.60;;;3.50;;
75171;SDS011;63750;52.418;20.742;2023-10-31T10:13:34;5.10;;;3.80;;
75171;SDS011;63750;52.418;20.742;2023-10-31T10:16:03;6.00;;;3.90;;
75171;SDS011;63750;52.418;20.742;2023-10-31T10:18:32;6.80;;;4.30;;
75171;SDS011;63750;52.418;20.742;2023-10-31T10:21:02;7.20;;;5.30;;
75171;SDS011;63750;52.418;20.742;2023-10-31T10:23:31;11.10;;;7.60;;
75171;SDS011;63750;52.418;20.742;2023-10-31T10:26:01;12.30;;;8.70;;
75171;SDS011;63750;52.418;20.742;2023-10-31T10:28:30;9.50;;;6.70;;
75171;SDS011;63750;52.418;20.742;2023-10-31T10:30:58;7.40;;;4.80;;
75171;SDS011;63750;52.418;20.742;2023-10-31T10:33:26;6.40;;;4.50;;
75171;SDS011;63750;52.418;20.742;2023-10-31T10:35:54;7.70;;;4.20;;
75171;SDS011;63750;52.418;20.742;2023-10-31T10:38:23;5.00;;;3.40;;
75171;SDS011;63750;52.418;20.742;2023-10-31T10:40:51;5.60;;;4.00;;
75171;SDS011;63750;52.418;20.742;2023-10-31T10:43:22;4.90;;;3.90;;
75171;SDS011;63750;52.418;20.742;2023-10-31T10:45:55;5.50;;;4.00;;
75171;SDS011;63750;52.418;20.742;2023-10-31T10:48:24;5.20;;;3.80;;
75171;SDS011;63750;52.418;20.742;2023-10-31T10:50:57;6.90;;;3.50;;
75171;SDS011;63750;52.418;20.742;2023-10-31T10:53:28;4.00;;;3.60;;
75171;SDS011;63750;52.418;20.742;2023-10-31T10:56:03;5.70;;;3.90;;
75171;SDS011;63750;52.418;20.742;2023-10-31T10:58:47;4.90;;;3.30;;
75171;SDS011;63750;52.418;20.742;2023-10-31T11:01:22;4.50;;;3.60;;
75171;SDS011;63750;52.418;20.742;2023-10-31T11:03:51;4.10;;;3.40;;
75171;SDS011;63750;52.418;20.742;2023-10-31T11:06:20;4.30;;;3.30;;
75171;SDS011;63750;52.418;20.742;2023-10-31T11:08:49;4.00;;;3.40;;
75171;SDS011;63750;52.418;20.742;2023-10-31T11:11:18;6.70;;;3.80;;
75171;SDS011;63750;52.418;20.742;2023-10-31T11:13:47;3.50;;;3.20;;
75171;SDS011;63750;52.418;20.742;2023-10-31T11:16:17;4.20;;;3.70;;
75171;SDS011;63750;52.418;20.742;2023-10-31T11:18:52;6.00;;;3.70;;
75171;SDS011;63750;52.418;20.742;2023-10-31T11:21:23;5.20;;;3.80;;
75171;SDS011;63750;52.418;20.742;2023-10-31T11:23:57;4.70;;;3.60;;
75171;SDS011;63750;52.418;20.742;2023-10-31T11:26:26;4.90;;;3.60;;
75171;SDS011;63750;52.418;20.742;2023-10-31T11:29:04;5.10;;;3.80;;
75171;SDS011;63750;52.418;20.742;2023-10-31T11:31:33;4.00;;;3.40;;
75171;SDS011;63750;52.418;20.742;2023-10-31T11:34:03;4.60;;;3.70;;
75171;SDS011;63750;52.418;20.742;2023-10-31T11:36:32;4.50;;;3.70;;
75171;SDS011;63750;52.418;20.742;2023-10-31T11:39:11;5.40;;;3.90;;
75171;SDS011;63750;52.418;20.742;2023-10-31T11:41:40;5.50;;;3.60;;
75171;SDS011;63750;52.418;20.742;2023-10-31T11:44:15;4.60;;;3.30;;
75171;SDS011;63750;52.418;20.742;2023-10-31T11:46:44;4.00;;;3.60;;
75171;SDS011;63750;52.418;20.742;2023-10-31T11:49:12;4.60;;;3.80;;
75171;SDS011;63750;52.418;20.742;2023-10-31T11:51:40;4.50;;;3.90;;
75171;SDS011;63750;52.418;20.742;2023-10-31T11:54:10;5.20;;;4.00;;
75171;SDS011;63750;52.418;20.742;2023-10-31T11:56:41;4.00;;;3.60;;
75171;SDS011;63750;52.418;20.742;2023-10-31T11:59:16;5.30;;;4.10;;
75171;SDS011;63750;52.418;20.742;2023-10-31T12:01:45;4.20;;;3.50;;
75171;SDS011;63750;52.418;20.742;2023-10-31T12:04:22;5.30;;;3.60;;
75171;SDS011;63750;52.418;20.742;2023-10-31T12:06:57;4.60;;;3.90;;
75171;SDS011;63750;52.418;20.742;2023-10-31T12:09:26;6.20;;;4.40;;
75171;SDS011;63750;52.418;20.742;2023-10-31T12:11:54;4.80;;;3.80;;
75171;SDS011;63750;52.418;20.742;2023-10-31T12:14:22;4.30;;;3.90;;
75171;SDS011;63750;52.418;20.742;2023-10-31T12:16:50;4.80;;;3.80;;
75171;SDS011;63750;52.418;20.742;2023-10-31T12:19:20;4.50;;;3.70;;
75171;SDS011;63750;52.418;20.742;2023-10-31T12:21:48;5.00;;;3.70;;
75171;SDS011;63750;52.418;20.742;2023-10-31T12:24:17;4.10;;;3.70;;
75171;SDS011;63750;52.418;20.742;2023-10-31T12:26:45;5.50;;;3.80;;
75171;SDS011;63750;52.418;20.742;2023-10-31T12:29:14;5.30;;;3.80;;
75171;SDS011;63750;52.418;20.742;2023-10-31T12:31:43;4.00;;;3.70;;
75171;SDS011;63750;52.418;20.742;2023-10-31T12:34:13;5.30;;;4.00;;
75171;SDS011;63750;52.418;20.742;2023-10-31T12:36:42;5.90;;;3.90;;
75171;SDS011;63750;52.418;20.742;2023-10-31T12:39:12;5.20;;;4.00;;
75171;SDS011;63750;52.418;20.742;2023-10-31T12:41:40;4.10;;;3.60;;
75171;SDS011;63750;52.418;20.742;2023-10-31T12:44:09;5.80;;;3.60;;
75171;SDS011;63750;52.418;20.742;2023-10-31T12:46:41;3.50;;;3.20;;
75171;SDS011;63750;52.418;20.742;2023-10-31T12:49:13;3.40;;;3.10;;
75171;SDS011;63750;52.418;20.742;2023-10-31T12:51:58;4.00;;;3.40;;
75171;SDS011;63750;52.418;20.742;2023-10-31T12:54:30;4.90;;;3.30;;
75171;SDS011;63750;52.418;20.742;2023-10-31T12:57:00;4.30;;;3.30;;
75171;SDS011;63750;52.418;20.742;2023-10-31T12:59:29;3.80;;;3.40;;
75171;SDS011;63750;52.418;20.742;2023-10-31T13:01:58;3.40;;;3.10;;
75171;SDS011;63750;52.418;20.742;2023-10-31T13:04:26;4.10;;;3.70;;
75171;SDS011;63750;52.418;20.742;2023-10-31T13:06:59;3.60;;;3.30;;
75171;SDS011;63750;52.418;20.742;2023-10-31T13:09:29;4.10;;;3.80;;
75171;SDS011;63750;52.418;20.742;2023-10-31T13:11:59;3.80;;;3.40;;
75171;SDS011;63750;52.418;20.742;2023-10-31T13:14:28;4.50;;;3.40;;
75171;SDS011;63750;52.418;20.742;2023-10-31T13:16:56;3.70;;;3.00;;
75171;SDS011;63750;52.418;20.742;2023-10-31T13:19:25;3.60;;;3.30;;
75171;SDS011;63750;52.418;20.742;2023-10-31T13:21:53;3.70;;;3.40;;
75171;SDS011;63750;52.418;20.742;2023-10-31T13:24:21;3.90;;;3.20;;
75171;SDS011;63750;52.418;20.742;2023-10-31T13:26:50;3.90;;;3.60;;
75171;SDS011;63750;52.418;20.742;2023-10-31T13:29:18;3.70;;;3.40;;
75171;SDS011;63750;52.418;20.742;2023-10-31T13:31:47;3.40;;;3.10;;
75171;SDS011;63750;52.418;20.742;2023-10-31T13:34:15;3.60;;;3.30;;
75171;SDS011;63750;52.418;20.742;2023-10-31T13:36:43;3.70;;;3.30;;
75171;SDS011;63750;52.418;20.742;2023-10-31T13:39:12;4.00;;;3.40;;
75171;SDS011;63750;52.418;20.742;2023-10-31T13:41:40;3.40;;;3.10;;
75171;SDS011;63750;52.418;20.742;2023-10-31T13:44:10;5.80;;;3.60;;
75171;SDS011;63750;52.418;20.742;2023-10-31T13:46:39;3.80;;;3.20;;
75171;SDS011;63750;52.418;20.742;2023-10-31T13:49:07;3.70;;;3.30;;
75171;SDS011;63750;52.418;20.742;2023-10-31T13:51:35;3.30;;;3.00;;
75171;SDS011;63750;52.418;20.742;2023-10-31T13:54:03;3.80;;;3.00;;
75171;SDS011;63750;52.418;20.742;2023-10-31T13:56:32;3.80;;;3.20;;
75171;SDS011;63750;52.418;20.742;2023-10-31T13:59:00;3.30;;;2.90;;
75171;SDS011;63750;52.418;20.742;2023-10-31T14:01:28;3.30;;;3.00;;
75171;SDS011;63750;52.418;20.742;2023-10-31T14:03:56;3.10;;;2.80;;
75171;SDS011;63750;52.418;20.742;2023-10-31T14:06:25;3.40;;;2.80;;
75171;SDS011;63750;52.418;20.742;2023-10-31T14:08:55;4.20;;;3.20;;
75171;SDS011;63750;52.418;20.742;2023-10-31T14:11:26;2.90;;;2.60;;
75171;SDS011;63750;52.418;20.742;2023-10-31T14:13:57;4.20;;;2.70;;
75171;SDS011;63750;52.418;20.742;2023-10-31T14:16:29;3.50;;;2.60;;
75171;SDS011;63750;52.418;20.742;2023-10-31T14:18:59;3.00;;;2.70;;
75171;SDS011;63750;52.418;20.742;2023-10-31T14:21:30;3.00;;;2.70;;
75171;SDS011;63750;52.418;20.742;2023-10-31T14:24:00;3.60;;;2.70;;
75171;SDS011;63750;52.418;20.742;2023-10-31T14:26:28;2.90;;;2.60;;
75171;SDS011;63750;52.418;20.742;2023-10-31T14:28:57;4.10;;;2.50;;
75171;SDS011;63750;52.418;20.742;2023-10-31T14:31:26;3.20;;;2.50;;
75171;SDS011;63750;52.418;20.742;2023-10-31T14:33:54;2.50;;;2.20;;
75171;SDS011;63750;52.418;20.742;2023-10-31T14:36:23;3.30;;;2.40;;